createdAt,value
2023-01-10T00:00:27.708Z,7.80
2023-01-10T00:02:54.622Z,7.90
2023-01-10T00:05:21.355Z,7.90
2023-01-10T00:07:48.026Z,7.90
2023-01-10T00:10:14.998Z,7.90
2023-01-10T00:13:00.893Z,7.90
2023-01-10T00:15:27.509Z,7.90
2023-01-10T00:17:54.171Z,7.90
2023-01-10T00:20:20.795Z,7.90
2023-01-10T00:22:49.343Z,7.90
2023-01-10T00:25:16.098Z,8.00
2023-01-10T00:27:45.291Z,7.90
2023-01-10T00:30:15.461Z,7.90
2023-01-10T00:32:43.530Z,7.90
2023-01-10T00:35:11.271Z,8.00
2023-01-10T00:37:39.060Z,7.90
2023-01-10T00:40:10.200Z,7.90
2023-01-10T00:42:56.136Z,8.00
2023-01-10T00:45:24.991Z,8.00
2023-01-10T00:47:52.691Z,8.00
2023-01-10T00:50:19.417Z,8.00
2023-01-10T00:52:46.061Z,8.00
2023-01-10T00:55:12.703Z,8.00
2023-01-10T00:57:39.445Z,8.00
2023-01-10T01:00:09.142Z,8.00
2023-01-10T01:02:36.236Z,8.00
2023-01-10T01:05:03.387Z,8.00
2023-01-10T01:07:30.214Z,8.00
2023-01-10T01:10:15.609Z,8.00
2023-01-10T01:12:42.216Z,8.00
2023-01-10T01:15:09.276Z,8.00
2023-01-10T01:17:35.960Z,8.00
2023-01-10T01:20:02.700Z,8.00
2023-01-10T01:22:29.288Z,8.00
2023-01-10T01:24:56.121Z,7.90
2023-01-10T01:27:22.748Z,8.00
2023-01-10T01:29:49.316Z,8.00
2023-01-10T01:32:15.902Z,8.00
2023-01-10T01:34:42.594Z,7.90
2023-01-10T01:37:09.363Z,8.00
2023-01-10T01:39:35.928Z,8.00
2023-01-10T01:42:02.885Z,8.00
2023-01-10T01:44:32.580Z,8.00
2023-01-10T01:47:07.791Z,8.00
2023-01-10T01:49:40.420Z,8.00
2023-01-10T01:52:12.342Z,8.00
2023-01-10T01:54:39.004Z,8.10
2023-01-10T01:57:13.252Z,8.10
2023-01-10T01:59:45.303Z,8.10
2023-01-10T02:02:20.266Z,8.20
2023-01-10T02:04:56.619Z,8.10
2023-01-10T02:07:25.985Z,8.20
2023-01-10T02:10:03.627Z,8.20
2023-01-10T02:12:31.951Z,8.20
2023-01-10T02:14:59.771Z,8.20
2023-01-10T02:17:26.340Z,8.20
2023-01-10T02:19:59.188Z,8.20
2023-01-10T02:22:45.308Z,8.20
2023-01-10T02:25:36.019Z,8.20
2023-01-10T02:28:40.257Z,8.20
2023-01-10T02:31:06.905Z,8.20
2023-01-10T02:33:38.001Z,8.20
2023-01-10T02:36:58.574Z,8.20
2023-01-10T02:39:57.479Z,8.30
2023-01-10T02:42:49.007Z,8.20
2023-01-10T02:45:36.851Z,8.20
2023-01-10T02:48:03.740Z,8.20
2023-01-10T02:50:45.218Z,8.20
2023-01-10T02:53:24.180Z,8.20
2023-01-10T02:55:59.952Z,8.10
2023-01-10T02:58:52.661Z,8.20
2023-01-10T03:01:32.735Z,8.20
2023-01-10T03:04:17.945Z,8.20
2023-01-10T03:07:15.094Z,8.20
2023-01-10T03:09:52.673Z,8.20
2023-01-10T03:12:35.025Z,8.10
2023-01-10T03:15:03.893Z,8.20
2023-01-10T03:17:31.306Z,8.20
2023-01-10T03:20:02.562Z,8.20
2023-01-10T03:22:31.413Z,8.20
2023-01-10T03:25:01.159Z,8.10
2023-01-10T03:27:48.778Z,8.00
2023-01-10T03:30:28.392Z,8.00
2023-01-10T03:32:56.889Z,8.00
2023-01-10T03:35:34.576Z,7.90
2023-01-10T03:38:15.964Z,7.80
2023-01-10T03:41:04.057Z,7.80
2023-01-10T03:44:12.668Z,7.80
2023-01-10T03:47:10.044Z,7.80
2023-01-10T03:49:40.061Z,7.80
2023-01-10T03:52:09.740Z,7.80
2023-01-10T03:54:36.500Z,7.80
2023-01-10T03:57:03.125Z,7.90
2023-01-10T03:59:30.542Z,7.90
2023-01-10T04:01:57.214Z,7.90
2023-01-10T04:04:24.126Z,7.80
2023-01-10T04:06:50.764Z,7.80
2023-01-10T04:09:17.380Z,7.70
2023-01-10T04:11:44.000Z,7.70
2023-01-10T04:14:10.650Z,7.70
2023-01-10T04:16:37.301Z,7.70
2023-01-10T04:19:03.992Z,7.70
2023-01-10T04:21:30.629Z,7.80
2023-01-10T04:23:57.208Z,7.80
2023-01-10T04:26:23.843Z,7.80
2023-01-10T04:28:50.420Z,7.80
2023-01-10T04:31:17.076Z,7.80
2023-01-10T04:33:43.729Z,7.80
2023-01-10T04:36:10.347Z,7.70
2023-01-10T04:38:36.920Z,7.80
2023-01-10T04:41:03.557Z,7.80
2023-01-10T04:43:30.226Z,7.80
2023-01-10T04:45:56.869Z,7.80
2023-01-10T04:48:23.508Z,7.80
2023-01-10T04:50:51.960Z,7.80
2023-01-10T04:53:19.167Z,7.80
2023-01-10T04:55:46.128Z,7.80
2023-01-10T04:58:12.924Z,7.70
2023-01-10T05:00:39.749Z,7.60
2023-01-10T05:03:06.552Z,7.50
2023-01-10T05:05:33.255Z,7.50
2023-01-10T05:07:59.855Z,7.50
2023-01-10T05:10:26.969Z,7.40
2023-01-10T05:12:53.637Z,7.50
2023-01-10T05:15:21.165Z,7.50
2023-01-10T05:17:47.756Z,7.50
2023-01-10T05:20:14.462Z,7.50
2023-01-10T05:22:41.331Z,7.50
2023-01-10T05:25:08.272Z,7.60
2023-01-10T05:27:34.951Z,7.60
2023-01-10T05:30:01.536Z,7.60
2023-01-10T05:32:29.559Z,7.60
2023-01-10T05:34:56.581Z,7.60
2023-01-10T05:37:23.184Z,7.60
2023-01-10T05:39:49.751Z,7.70
2023-01-10T05:42:16.370Z,7.60
2023-01-10T05:44:42.985Z,7.60
2023-01-10T05:47:09.705Z,7.70
2023-01-10T05:49:36.333Z,7.60
2023-01-10T05:52:03.165Z,7.70
2023-01-10T05:54:30.812Z,7.70
2023-01-10T05:56:57.910Z,7.60
2023-01-10T05:59:28.425Z,7.60
2023-01-10T06:01:55.425Z,7.60
2023-01-10T06:04:22.029Z,7.60
2023-01-10T06:06:48.625Z,7.60
2023-01-10T06:09:15.212Z,7.60
2023-01-10T06:11:41.942Z,7.50
2023-01-10T06:14:08.549Z,7.60
2023-01-10T06:16:35.205Z,7.60
2023-01-10T06:19:01.797Z,7.60
2023-01-10T06:21:28.508Z,7.60
2023-01-10T06:23:55.132Z,7.60
2023-01-10T06:26:21.807Z,7.60
2023-01-10T06:28:48.372Z,7.60
2023-01-10T06:31:15.140Z,7.60
2023-01-10T06:33:43.871Z,7.60
2023-01-10T06:36:11.153Z,7.50
2023-01-10T06:38:38.047Z,7.50
2023-01-10T06:41:13.052Z,7.50
2023-01-10T06:43:45.350Z,7.50
2023-01-10T06:46:19.389Z,7.50
2023-01-10T06:48:46.863Z,7.40
2023-01-10T06:51:14.860Z,7.40
2023-01-10T06:53:42.080Z,7.50
2023-01-10T06:56:09.820Z,7.40
2023-01-10T06:58:41.081Z,7.50
2023-01-10T07:01:13.718Z,7.50
2023-01-10T07:03:40.847Z,7.40
2023-01-10T07:06:10.239Z,7.40
2023-01-10T07:08:41.910Z,7.50
2023-01-10T07:11:11.345Z,7.50
2023-01-10T07:13:38.355Z,7.50
2023-01-10T07:16:07.238Z,7.50
2023-01-10T07:18:35.205Z,7.50
2023-01-10T07:21:02.019Z,7.50
2023-01-10T07:23:31.135Z,7.60
2023-01-10T07:25:59.218Z,7.60
2023-01-10T07:28:25.857Z,7.60
2023-01-10T07:30:52.479Z,7.60
2023-01-10T07:33:19.261Z,7.60
2023-01-10T07:35:45.907Z,7.60
2023-01-10T07:38:12.604Z,7.70
2023-01-10T07:40:39.219Z,7.60
2023-01-10T07:43:05.938Z,7.70
2023-01-10T07:45:32.598Z,7.70
2023-01-10T07:48:01.117Z,7.70
2023-01-10T07:50:29.701Z,7.80
2023-01-10T07:52:56.988Z,7.70
2023-01-10T07:55:23.573Z,7.80
2023-01-10T07:57:51.448Z,7.80
2023-01-10T08:00:19.158Z,7.80
2023-01-10T08:02:46.793Z,7.80
2023-01-10T08:05:14.297Z,7.80
2023-01-10T08:07:40.915Z,7.80
2023-01-10T08:10:08.123Z,7.80
2023-01-10T08:12:34.907Z,7.90
2023-01-10T08:15:01.626Z,7.90
2023-01-10T08:17:28.312Z,7.90
2023-01-10T08:19:54.911Z,7.90
2023-01-10T08:22:21.526Z,7.90
2023-01-10T08:24:48.258Z,7.90
2023-01-10T08:27:14.842Z,8.00
2023-01-10T08:29:42.146Z,8.00
2023-01-10T08:32:09.224Z,8.00
2023-01-10T08:34:35.830Z,8.00
2023-01-10T08:37:02.594Z,8.10
2023-01-10T08:39:30.641Z,8.10
2023-01-10T08:41:57.736Z,8.10
2023-01-10T08:44:24.354Z,8.10
2023-01-10T08:46:51.013Z,8.20
2023-01-10T08:49:17.684Z,8.30
2023-01-10T08:51:44.687Z,8.30
2023-01-10T08:54:11.308Z,8.30
2023-01-10T08:56:40.097Z,8.30
2023-01-10T08:59:07.672Z,8.50
2023-01-10T09:01:34.841Z,8.50
2023-01-10T09:04:01.602Z,8.60
2023-01-10T09:06:28.406Z,8.60
2023-01-10T09:08:54.995Z,8.60
2023-01-10T09:11:21.592Z,8.60
2023-01-10T09:13:51.260Z,8.70
2023-01-10T09:16:18.711Z,8.70
2023-01-10T09:18:45.888Z,8.70
2023-01-10T09:21:13.048Z,8.80
2023-01-10T09:23:40.453Z,8.80
2023-01-10T09:26:07.196Z,8.80
2023-01-10T09:28:33.847Z,8.70
2023-01-10T09:31:01.319Z,8.80
2023-01-10T09:33:34.950Z,8.80
2023-01-10T09:36:13.629Z,8.90
2023-01-10T09:38:40.401Z,8.90
2023-01-10T09:41:22.069Z,9.00
2023-01-10T09:44:25.106Z,9.10
2023-01-10T09:47:17.750Z,9.20
2023-01-10T09:49:56.599Z,9.20
2023-01-10T09:52:39.570Z,9.20
2023-01-10T09:55:20.415Z,9.20
2023-01-10T09:57:47.785Z,9.20
2023-01-10T10:00:21.626Z,9.20
2023-01-10T10:02:52.662Z,9.10
2023-01-10T10:05:20.894Z,9.10
2023-01-10T10:07:53.744Z,9.20
2023-01-10T10:10:48.071Z,9.10
2023-01-10T10:13:52.000Z,9.10
2023-01-10T10:16:49.031Z,9.10
2023-01-10T10:19:43.347Z,9.10
2023-01-10T10:22:47.368Z,9.10
2023-01-10T10:25:18.385Z,9.00
2023-01-10T10:28:09.646Z,9.00
2023-01-10T10:30:44.407Z,9.20
2023-01-10T10:33:19.971Z,9.10
2023-01-10T10:36:10.788Z,9.20
2023-01-10T10:38:42.469Z,9.20
2023-01-10T10:41:19.670Z,9.20
2023-01-10T10:43:47.943Z,9.20
2023-01-10T10:46:19.019Z,9.10
2023-01-10T10:48:53.551Z,9.10
2023-01-10T10:51:34.576Z,9.10
2023-01-10T10:54:01.429Z,9.10
2023-01-10T10:56:28.169Z,9.10
2023-01-10T10:58:58.211Z,9.20
2023-01-10T11:01:26.813Z,9.20
2023-01-10T11:04:00.629Z,9.30
2023-01-10T11:06:29.874Z,9.40
2023-01-10T11:09:00.093Z,9.30
2023-01-10T11:11:32.495Z,9.40
2023-01-10T11:14:02.110Z,9.40
2023-01-10T11:16:36.664Z,9.50
2023-01-10T11:19:19.980Z,9.50
2023-01-10T11:21:53.300Z,9.60
2023-01-10T11:24:33.577Z,9.60
2023-01-10T11:27:04.782Z,9.70
2023-01-10T11:29:47.086Z,9.80
2023-01-10T11:32:17.044Z,9.90
2023-01-10T11:34:53.861Z,10.00
2023-01-10T11:37:25.154Z,10.00
2023-01-10T11:40:16.079Z,10.00
2023-01-10T11:42:43.028Z,10.00
2023-01-10T11:45:25.294Z,10.10
2023-01-10T11:48:15.199Z,10.10
2023-01-10T11:50:48.924Z,10.10
2023-01-10T11:53:39.275Z,10.10
2023-01-10T11:56:07.354Z,10.20
2023-01-10T11:58:36.355Z,10.20
2023-01-10T12:01:03.122Z,10.20
2023-01-10T12:03:34.947Z,10.30
2023-01-10T12:06:14.062Z,10.20
2023-01-10T12:08:44.954Z,10.20
2023-01-10T12:11:17.475Z,10.20
2023-01-10T12:13:45.666Z,10.20
2023-01-10T12:16:22.059Z,10.20
2023-01-10T12:18:54.637Z,10.20
2023-01-10T12:21:30.835Z,10.10
2023-01-10T12:24:01.329Z,10.00
2023-01-10T12:26:32.245Z,9.90
2023-01-10T12:29:08.525Z,9.80
2023-01-10T12:31:39.070Z,9.70
2023-01-10T12:34:16.842Z,9.70
2023-01-10T12:37:01.229Z,9.70
2023-01-10T12:39:34.908Z,9.60
2023-01-10T12:42:26.027Z,9.70
2023-01-10T12:45:00.286Z,9.80
2023-01-10T12:47:51.538Z,9.80
2023-01-10T12:50:23.128Z,9.80
2023-01-10T12:53:23.274Z,9.90
2023-01-10T12:55:55.187Z,10.00
2023-01-10T12:58:47.082Z,10.20
2023-01-10T13:01:40.564Z,10.30
2023-01-10T13:04:12.028Z,10.50
2023-01-10T13:06:40.701Z,10.40
2023-01-10T13:09:19.810Z,10.50
2023-01-10T13:12:00.329Z,10.50
2023-01-10T13:14:40.165Z,10.50
2023-01-10T13:17:27.980Z,10.60
2023-01-10T13:20:16.325Z,10.50
2023-01-10T13:22:45.028Z,10.40
2023-01-10T13:25:24.702Z,10.30
2023-01-10T13:28:18.315Z,10.20
2023-01-10T13:30:53.270Z,10.10
2023-01-10T13:33:47.147Z,10.10
2023-01-10T13:36:24.354Z,10.10
2023-01-10T13:38:57.207Z,10.10
2023-01-10T13:41:43.626Z,10.20
2023-01-10T13:44:14.947Z,10.20
2023-01-10T13:46:43.115Z,10.20
2023-01-10T13:49:09.681Z,10.20
2023-01-10T13:51:37.275Z,10.30
2023-01-10T13:54:24.578Z,10.30
2023-01-10T13:56:51.460Z,10.40
2023-01-10T13:59:45.889Z,10.40
2023-01-10T14:02:34.257Z,10.50
2023-01-10T14:05:07.438Z,10.40
2023-01-10T14:07:45.397Z,10.40
2023-01-10T14:10:24.185Z,10.30
2023-01-10T14:13:09.513Z,10.30
2023-01-10T14:15:46.031Z,10.20
2023-01-10T14:18:33.028Z,10.20
2023-01-10T14:21:05.034Z,10.10
2023-01-10T14:23:36.432Z,10.00
2023-01-10T14:26:04.391Z,10.00
2023-01-10T14:28:34.421Z,9.90
2023-01-10T14:31:17.621Z,9.90
2023-01-10T14:33:45.172Z,9.80
2023-01-10T14:36:38.226Z,9.80
2023-01-10T14:39:07.297Z,9.70
2023-01-10T14:41:44.291Z,9.70
2023-01-10T14:44:16.948Z,9.60
2023-01-10T14:46:51.737Z,9.50
2023-01-10T14:49:31.277Z,9.50
2023-01-10T14:52:21.894Z,9.40
2023-01-10T14:54:56.954Z,9.40
2023-01-10T14:57:24.450Z,9.30
2023-01-10T15:00:00.892Z,9.20
2023-01-10T15:02:29.564Z,9.20
2023-01-10T15:05:07.590Z,9.10
2023-01-10T15:07:34.226Z,9.10
2023-01-10T15:10:06.009Z,9.10
2023-01-10T15:12:35.020Z,9.10
2023-01-10T15:15:12.330Z,9.00
2023-01-10T15:17:39.877Z,9.00
2023-01-10T15:20:07.117Z,8.90
2023-01-10T15:22:35.991Z,8.90
2023-01-10T15:25:18.860Z,8.90
2023-01-10T15:27:48.715Z,8.90
2023-01-10T15:30:36.056Z,8.90
2023-01-10T15:33:12.259Z,8.80
2023-01-10T15:35:39.655Z,8.80
2023-01-10T15:38:14.565Z,8.80
2023-01-10T15:40:42.543Z,8.80
2023-01-10T15:43:26.648Z,8.80
2023-01-10T15:45:55.868Z,8.80
2023-01-10T15:48:34.998Z,8.70
2023-01-10T15:51:11.906Z,8.70
2023-01-10T15:53:57.231Z,8.70
2023-01-10T15:56:29.403Z,8.70
2023-01-10T15:58:57.528Z,8.60
2023-01-10T16:01:26.391Z,8.50
2023-01-10T16:03:57.413Z,8.50
2023-01-10T16:06:33.338Z,8.40
2023-01-10T16:09:05.857Z,8.30
2023-01-10T16:12:08.103Z,8.30
2023-01-10T16:14:34.725Z,8.30
2023-01-10T16:17:02.150Z,8.10
2023-01-10T16:19:28.880Z,8.10
2023-01-10T16:21:58.080Z,8.10
2023-01-10T16:24:28.041Z,8.00
2023-01-10T16:26:56.524Z,8.00
2023-01-10T16:29:24.314Z,7.90
2023-01-10T16:31:52.282Z,7.90
2023-01-10T16:34:19.506Z,7.80
2023-01-10T16:36:46.885Z,7.80
2023-01-10T16:39:17.082Z,7.70
2023-01-10T16:42:03.733Z,7.70
2023-01-10T16:44:31.111Z,7.50
2023-01-10T16:46:58.241Z,7.50
2023-01-10T16:49:25.251Z,7.50
2023-01-10T16:51:52.234Z,7.40
2023-01-10T16:54:21.841Z,7.30
2023-01-10T16:56:49.478Z,7.30
2023-01-10T16:59:18.092Z,7.20
2023-01-10T17:01:50.011Z,7.20
2023-01-10T17:04:29.816Z,7.10
2023-01-10T17:06:57.015Z,7.10
2023-01-10T17:09:29.456Z,7.10
2023-01-10T17:12:02.207Z,7.00
2023-01-10T17:14:34.034Z,7.00
2023-01-10T17:17:03.284Z,7.00
2023-01-10T17:19:30.181Z,6.90
2023-01-10T17:21:56.886Z,7.00
2023-01-10T17:24:23.679Z,7.00
2023-01-10T17:26:50.398Z,7.00
2023-01-10T17:29:17.015Z,7.00
2023-01-10T17:31:43.709Z,7.00
2023-01-10T17:34:10.406Z,7.00
2023-01-10T17:36:39.508Z,7.00
2023-01-10T17:39:07.019Z,7.00
2023-01-10T17:41:34.071Z,7.00
2023-01-10T17:44:00.790Z,7.00
2023-01-10T17:46:27.416Z,7.00
2023-01-10T17:48:54.079Z,7.00
2023-01-10T17:51:22.857Z,7.00
2023-01-10T17:53:49.491Z,6.90
2023-01-10T17:56:16.540Z,6.90
2023-01-10T17:58:44.486Z,6.90
2023-01-10T18:01:21.765Z,6.80
2023-01-10T18:03:51.512Z,6.80
2023-01-10T18:06:24.018Z,6.80
2023-01-10T18:08:51.598Z,6.80
2023-01-10T18:11:18.257Z,6.80
2023-01-10T18:13:45.101Z,6.80
2023-01-10T18:16:11.698Z,6.80
2023-01-10T18:18:39.019Z,6.80
2023-01-10T18:21:12.876Z,6.80
2023-01-10T18:23:39.530Z,6.90
2023-01-10T18:26:09.482Z,6.90
2023-01-10T18:28:42.744Z,6.90
2023-01-10T18:31:18.396Z,6.90
2023-01-10T18:33:46.178Z,6.90
2023-01-10T18:36:15.446Z,6.90
2023-01-10T18:38:42.380Z,6.90
2023-01-10T18:41:09.244Z,7.00
2023-01-10T18:43:35.931Z,7.00
2023-01-10T18:46:05.752Z,7.00
2023-01-10T18:48:32.781Z,7.00
2023-01-10T18:51:00.978Z,7.00
2023-01-10T18:53:27.928Z,6.90
2023-01-10T18:56:04.332Z,6.90
2023-01-10T18:58:33.962Z,7.00
2023-01-10T19:01:17.276Z,7.00
2023-01-10T19:03:44.716Z,6.90
2023-01-10T19:06:15.737Z,6.90
2023-01-10T19:08:43.406Z,6.90
2023-01-10T19:11:16.283Z,6.90
2023-01-10T19:13:45.092Z,7.00
2023-01-10T19:16:26.734Z,7.10
2023-01-10T19:18:58.988Z,7.10
2023-01-10T19:21:27.353Z,7.20
2023-01-10T19:23:56.535Z,7.30
2023-01-10T19:26:24.787Z,7.30
2023-01-10T19:28:51.739Z,7.30
2023-01-10T19:31:20.644Z,7.40
2023-01-10T19:33:48.198Z,7.40
2023-01-10T19:36:15.736Z,7.50
2023-01-10T19:38:42.454Z,7.50
2023-01-10T19:41:09.674Z,7.50
2023-01-10T19:43:36.408Z,7.60
2023-01-10T19:46:12.841Z,7.60
2023-01-10T19:48:40.724Z,7.70
2023-01-10T19:51:12.513Z,7.70
2023-01-10T19:53:44.156Z,7.70
2023-01-10T19:56:12.195Z,7.70
2023-01-10T19:58:39.456Z,7.80
2023-01-10T20:01:23.867Z,7.70
2023-01-10T20:03:50.973Z,7.80
2023-01-10T20:06:21.654Z,7.80
2023-01-10T20:08:48.859Z,7.80
2023-01-10T20:11:16.489Z,7.80
2023-01-10T20:13:48.252Z,7.80
2023-01-10T20:16:22.622Z,7.80
2023-01-10T20:18:51.229Z,7.80
2023-01-10T20:21:19.815Z,7.80
2023-01-10T20:23:46.798Z,7.80
2023-01-10T20:26:19.055Z,7.90
2023-01-10T20:28:47.806Z,7.90
2023-01-10T20:31:18.300Z,7.90
2023-01-10T20:33:45.051Z,7.90
2023-01-10T20:36:14.772Z,7.90
2023-01-10T20:38:41.484Z,7.90
2023-01-10T20:41:12.353Z,7.90
2023-01-10T20:43:39.505Z,7.90
2023-01-10T20:46:08.241Z,7.90
2023-01-10T20:48:35.152Z,8.00
2023-01-10T20:51:02.126Z,8.00
2023-01-10T20:53:28.700Z,8.00
2023-01-10T20:55:59.996Z,8.00
2023-01-10T20:58:26.913Z,8.00
2023-01-10T21:00:54.271Z,8.00
2023-01-10T21:03:20.873Z,8.10
2023-01-10T21:05:54.440Z,8.10
2023-01-10T21:08:22.131Z,8.10
2023-01-10T21:10:50.053Z,8.10
2023-01-10T21:13:16.925Z,8.10
2023-01-10T21:15:46.844Z,8.10
2023-01-10T21:18:15.679Z,8.10
2023-01-10T21:20:44.054Z,8.20
2023-01-10T21:23:11.460Z,8.20
2023-01-10T21:25:38.669Z,8.20
2023-01-10T21:28:09.599Z,8.20
2023-01-10T21:30:37.345Z,8.30
2023-01-10T21:33:04.730Z,8.30
2023-01-10T21:35:31.785Z,8.30
2023-01-10T21:37:58.684Z,8.30
2023-01-10T21:40:26.117Z,8.30
2023-01-10T21:42:53.071Z,8.30
2023-01-10T21:45:21.339Z,8.30
2023-01-10T21:47:50.956Z,8.30
2023-01-10T21:50:20.672Z,8.30
2023-01-10T21:52:48.987Z,8.30
2023-01-10T21:55:16.378Z,8.40
2023-01-10T21:57:43.005Z,8.30
2023-01-10T22:00:10.309Z,8.30
2023-01-10T22:02:36.899Z,8.40
2023-01-10T22:05:03.755Z,8.30
2023-01-10T22:07:30.658Z,8.30
2023-01-10T22:09:57.316Z,8.30
2023-01-10T22:12:25.248Z,8.30
2023-01-10T22:14:52.085Z,8.40
2023-01-10T22:17:18.697Z,8.30
2023-01-10T22:19:45.338Z,8.30
2023-01-10T22:22:12.110Z,8.40
2023-01-10T22:24:40.198Z,8.30
2023-01-10T22:27:06.925Z,8.40
2023-01-10T22:29:33.763Z,8.40
2023-01-10T22:32:00.338Z,8.40
2023-01-10T22:34:27.001Z,8.40
2023-01-10T22:36:53.599Z,8.40
2023-01-10T22:39:20.229Z,8.50
2023-01-10T22:41:46.899Z,8.40
2023-01-10T22:44:19.462Z,8.40
2023-01-10T22:46:46.866Z,8.40
2023-01-10T22:49:13.722Z,8.40
2023-01-10T22:51:40.335Z,8.40
2023-01-10T22:54:07.293Z,8.40
2023-01-10T22:56:33.994Z,8.40
2023-01-10T22:59:00.596Z,8.30
2023-01-10T23:01:27.316Z,8.30
2023-01-10T23:03:54.051Z,8.30
2023-01-10T23:06:20.824Z,8.30
2023-01-10T23:08:48.012Z,8.30
2023-01-10T23:11:16.857Z,8.30
2023-01-10T23:13:44.568Z,8.20
2023-01-10T23:16:16.810Z,8.30
2023-01-10T23:18:43.896Z,8.20
2023-01-10T23:21:10.751Z,8.20
2023-01-10T23:23:37.385Z,8.20
2023-01-10T23:26:07.480Z,8.20
2023-01-10T23:28:36.592Z,8.20
2023-01-10T23:31:04.675Z,8.20
2023-01-10T23:33:31.821Z,8.20
2023-01-10T23:35:58.779Z,8.20
2023-01-10T23:38:25.797Z,8.20
2023-01-10T23:40:52.857Z,8.20
2023-01-10T23:43:19.640Z,8.20
2023-01-10T23:45:46.439Z,8.20
2023-01-10T23:48:13.207Z,8.20
2023-01-10T23:50:39.889Z,8.20
2023-01-10T23:53:06.603Z,8.20
2023-01-10T23:55:33.524Z,8.20
2023-01-10T23:58:00.261Z,8.20
